Time;durP1;ratioP1;P1;durP2;ratioP2;P2;SDS_P1;SDS_P2;PMS_P1;PMS_P2;Temp;Humidity;BMP_temperature;BMP_pressure;BME280_temperature;BME280_humidity;BME280_pressure;Samples;Min_cycle;Max_cycle;Signal;HPM_P1;HPM_P2
2022/05/19 05:22:57;;;;;;;;;;;;;;;21.13;nan;99809.78;5094293;22;20585;-87
2022/05/19 05:25:26;;;;;;;;;;;;;;;21.32;nan;99822.03;5047300;28;19971;-87
2022/05/19 05:27:52;;;;;;;;;;;;;;;21.40;nan;99825.59;5064956;28;19971;-87
2022/05/19 05:30:17;;;;;;;;;;;;;;;21.45;nan;99824.28;5066820;28;19971;-88
2022/05/19 05:32:43;;;;;;;;;;;;;;;21.50;nan;99829.97;5067141;28;19967;-87
2022/05/19 05:35:09;;;;;;;;;;;;;;;21.64;nan;99832.84;5064446;28;19967;-87
2022/05/19 05:37:35;;;;;;;;;;;;;;;21.89;nan;99830.22;5069649;28;20026;-87
2022/05/19 05:40:01;;;;;;;;;;;;;;;22.23;nan;99838.13;5066172;28;19971;-88
2022/05/19 05:42:28;;;;;;;;;;;;;;;22.50;nan;99833.44;5067753;28;19975;-87
2022/05/19 05:44:56;;;;;;;;;;;;;;;22.70;nan;99839.25;5069551;28;19967;-88
2022/05/19 05:47:22;;;;;;;;;;;;;;;22.91;nan;99836.03;5048961;28;19979;-88
2022/05/19 05:49:47;;;;;;;;;;;;;;;23.07;nan;99836.00;5065347;28;19982;-88
2022/05/19 05:52:12;;;;;;;;;;;;;;;23.23;nan;99840.47;5066372;28;20069;-88
2022/05/19 05:54:38;;;;;;;;;;;;;;;23.36;nan;99834.56;5070790;28;20022;-89
2022/05/19 05:57:03;;;;;;;;;;;;;;;23.45;nan;99849.59;5065332;28;20062;-88
2022/05/19 05:59:28;;;;;;;;;;;;;;;23.61;nan;99843.31;5052032;28;19939;-89
2022/05/19 06:01:54;;;;;;;;;;;;;;;23.82;nan;99840.03;5068307;28;19958;-88
2022/05/19 06:04:19;;;;;;;;;;;;;;;24.04;nan;99847.25;5053039;28;19968;-88
2022/05/19 06:06:46;;;;;;;;;;;;;;;24.40;nan;99849.31;5056434;28;20481;-89
2022/05/19 06:09:12;;;;;;;;;;;;;;;24.85;nan;99852.94;5039081;28;19968;-89
2022/05/19 06:11:37;;;;;;;;;;;;;;;25.23;nan;99847.50;5061260;28;19934;-89
2022/05/19 06:14:02;;;;;;;;;;;;;;;25.48;nan;99844.50;5065327;28;19944;-89
2022/05/19 06:16:28;;;;;;;;;;;;;;;25.60;nan;99854.59;5064237;28;19963;-90
2022/05/19 06:18:53;;;;;;;;;;;;;;;25.81;nan;99856.44;5063753;28;19953;-89
2022/05/19 06:21:21;;;;;;;;;;;;;;;26.07;nan;99844.34;5058855;28;20039;-89
2022/05/19 06:23:49;;;;;;;;;;;;;;;26.37;nan;99844.19;5062227;28;19968;-89
2022/05/19 06:26:14;;;;;;;;;;;;;;;26.62;nan;99836.53;5052648;28;19935;-90
2022/05/19 06:28:40;;;;;;;;;;;;;;;26.78;nan;99841.63;5056579;28;20411;-90
2022/05/19 06:31:07;;;;;;;;;;;;;;;27.03;nan;99839.28;5055083;28;20282;-89
2022/05/19 06:33:35;;;;;;;;;;;;;;;27.35;nan;99835.13;5058526;28;20383;-90
2022/05/19 06:36:02;;;;;;;;;;;;;;;27.56;nan;99838.72;5056039;28;19957;-89
2022/05/19 06:38:28;;;;;;;;;;;;;;;27.60;nan;99829.19;5053414;28;19949;-90
2022/05/19 06:42:00;;;;;;;;;;;;;;;27.65;nan;99831.25;5056232;28;20332;-90
2022/05/19 06:43:39;;;;;;;;;;;;;;;27.61;nan;99838.94;5060731;28;19938;-90
2022/05/19 06:46:05;;;;;;;;;;;;;;;27.65;nan;99836.66;5061773;28;19931;-90
2022/05/19 06:48:30;;;;;;;;;;;;;;;27.66;nan;99839.16;5056542;28;19938;-90
2022/05/19 06:51:05;;;;;;;;;;;;;;;27.75;nan;99840.63;5059670;28;19938;-90
2022/05/19 06:53:31;;;;;;;;;;;;;;;27.79;nan;99835.69;5061496;28;19939;-90
2022/05/19 06:55:56;;;;;;;;;;;;;;;27.87;nan;99838.22;5059772;28;19938;-89
2022/05/19 06:58:22;;;;;;;;;;;;;;;28.04;nan;99843.22;5057124;28;20000;-90
2022/05/19 07:00:48;;;;;;;;;;;;;;;28.15;nan;99840.75;5045699;28;19937;-90
2022/05/19 07:03:13;;;;;;;;;;;;;;;28.34;nan;99835.56;5062909;28;20031;-89
2022/05/19 07:05:40;;;;;;;;;;;;;;;28.30;nan;99843.25;5065043;28;19950;-90
2022/05/19 07:08:06;;;;;;;;;;;;;;;28.28;nan;99845.31;5064310;28;19943;-90
2022/05/19 07:10:34;;;;;;;;;;;;;;;28.56;nan;99847.00;5067316;28;19964;-91
2022/05/19 07:13:00;;;;;;;;;;;;;;;28.75;nan;99851.56;5064328;28;20020;-90
2022/05/19 07:15:27;;;;;;;;;;;;;;;29.03;nan;99853.16;5043576;28;19978;-90
2022/05/19 07:17:53;;;;;;;;;;;;;;;29.18;nan;99859.19;5063158;28;19956;-90
2022/05/19 07:23:04;;;;;;;;;;;;;;;29.13;nan;99847.34;5087341;28;20015;-89
2022/05/19 07:25:29;;;;;;;;;;;;;;;29.19;nan;99857.31;5077863;28;19942;-90
2022/05/19 07:27:55;;;;;;;;;;;;;;;29.27;nan;99855.22;5070933;28;19948;-91
2022/05/19 07:30:20;;;;;;;;;;;;;;;29.45;nan;99857.22;5081858;28;19918;-90
2022/05/19 07:32:48;;;;;;;;;;;;;;;29.67;nan;99860.47;5081960;28;19942;-88
2022/05/19 07:35:14;;;;;;;;;;;;;;;29.88;nan;99861.19;5078396;28;19948;-88
2022/05/19 07:37:39;;;;;;;;;;;;;;;30.14;nan;99861.03;5069206;28;19964;-88
2022/05/19 07:40:06;;;;;;;;;;;;;;;30.41;nan;99858.97;5076348;28;19975;-88
2022/05/19 07:42:39;;;;;;;;;;;;;;;30.62;nan;99856.91;5064995;28;20028;-88
2022/05/19 07:45:22;;;;;;;;;;;;;;;30.74;nan;99859.72;5065981;28;20379;-88
2022/05/19 07:47:47;;;;;;;;;;;;;;;30.81;nan;99855.94;5071475;28;19948;-87
2022/05/19 07:50:14;;;;;;;;;;;;;;;31.02;nan;99846.50;5075181;28;19944;-88
2022/05/19 07:52:39;;;;;;;;;;;;;;;31.21;nan;99849.22;5073868;28;20044;-89
2022/05/19 07:55:05;;;;;;;;;;;;;;;31.01;nan;99857.59;5068296;28;19987;-88
2022/05/19 07:57:30;;;;;;;;;;;;;;;31.11;nan;99851.63;5072188;28;20000;-88
2022/05/19 07:59:55;;;;;;;;;;;;;;;31.05;nan;99856.09;5077726;28;19988;-87
2022/05/19 08:02:21;;;;;;;;;;;;;;;30.75;nan;99859.50;5089568;28;19937;-87
2022/05/19 08:04:46;;;;;;;;;;;;;;;30.68;nan;99860.59;5090746;28;19942;-88
2022/05/19 08:07:12;;;;;;;;;;;;;;;30.79;nan;99859.88;5079146;28;19948;-87
2022/05/19 08:17:54;;;;;;;;;;;;;;;31.11;nan;99854.34;5069839;28;19972;-86
2022/05/19 08:20:20;;;;;;;;;;;;;;;31.12;nan;99856.84;5090207;28;20009;-88
2022/05/19 08:22:45;;;;;;;;;;;;;;;31.07;nan;99849.38;5088373;28;19962;-88
2022/05/19 08:25:11;;;;;;;;;;;;;;;30.87;nan;99862.34;5090350;28;19933;-86
2022/05/19 08:27:36;;;;;;;;;;;;;;;30.79;nan;99863.44;5045049;28;19978;-88
2022/05/19 08:30:02;;;;;;;;;;;;;;;30.70;nan;99869.34;5070317;28;19938;-87
2022/05/19 08:32:27;;;;;;;;;;;;;;;30.77;nan;99864.69;5080691;28;20306;-87
2022/05/19 08:34:53;;;;;;;;;;;;;;;30.73;nan;99866.19;5075883;28;19936;-87
2022/05/19 08:37:19;;;;;;;;;;;;;;;30.82;nan;99860.28;5084709;28;19962;-87
2022/05/19 08:39:44;;;;;;;;;;;;;;;30.86;nan;99861.50;5067727;28;19937;-87
2022/05/19 08:42:12;;;;;;;;;;;;;;;30.96;nan;99860.16;5090548;28;19944;-89
2022/05/19 08:44:41;;;;;;;;;;;;;;;30.82;nan;99863.00;5079909;28;19946;-88
2022/05/19 08:47:09;;;;;;;;;;;;;;;30.55;nan;99856.97;5063460;28;19934;-89
2022/05/19 08:49:38;;;;;;;;;;;;;;;30.47;nan;99849.13;5064819;28;20044;-86
2022/05/19 08:52:08;;;;;;;;;;;;;;;30.39;nan;99852.94;5043618;28;20161;-88
2022/05/19 08:54:34;;;;;;;;;;;;;;;30.20;nan;99864.75;5061790;28;20801;-87
2022/05/19 08:57:16;;;;;;;;;;;;;;;30.24;nan;99844.28;5061375;28;20468;-88
2022/05/19 08:59:41;;;;;;;;;;;;;;;30.27;nan;99843.03;5058483;28;20463;-87
2022/05/19 09:02:09;;;;;;;;;;;;;;;30.41;nan;99844.59;5041102;28;20051;-88
2022/05/19 09:04:36;;;;;;;;;;;;;;;30.45;nan;99845.78;5061674;28;20567;-87
2022/05/19 09:10:11;;;;;;;;;;;;;;;30.40;nan;99849.16;5060192;28;20303;-87
2022/05/19 09:12:38;;;;;;;;;;;;;;;30.55;nan;99835.28;5058901;28;19949;-89
2022/05/19 09:15:05;;;;;;;;;;;;;;;30.70;nan;99836.81;5060569;28;19931;-89
2022/05/19 09:17:32;;;;;;;;;;;;;;;30.97;nan;99842.81;5061449;28;19954;-89
2022/05/19 09:20:01;;;;;;;;;;;;;;;31.24;nan;99832.47;5061143;28;19984;-89
2022/05/19 09:22:33;;;;;;;;;;;;;;;31.37;nan;99826.94;5065557;28;19962;-89
2022/05/19 09:25:00;;;;;;;;;;;;;;;31.21;nan;99833.75;5057393;28;20319;-88
2022/05/19 09:27:26;;;;;;;;;;;;;;;31.17;nan;99826.31;5062145;28;20549;-88
2022/05/19 09:29:52;;;;;;;;;;;;;;;31.47;nan;99829.94;5057526;28;20033;-88
2022/05/19 09:32:34;;;;;;;;;;;;;;;31.66;nan;99824.47;5059240;28;19938;-87
2022/05/19 09:35:10;;;;;;;;;;;;;;;31.85;nan;99815.19;5060245;28;19937;-86
2022/05/19 09:37:37;;;;;;;;;;;;;;;32.01;nan;99823.78;5055251;28;19958;-85
2022/05/19 09:40:12;;;;;;;;;;;;;;;32.15;nan;99822.50;5057613;28;19953;-86
2022/05/19 09:42:53;;;;;;;;;;;;;;;32.26;nan;99815.41;5057390;28;19944;-85
2022/05/19 09:45:22;;;;;;;;;;;;;;;32.30;nan;99813.91;5056415;28;19974;-87
2022/05/19 09:47:53;;;;;;;;;;;;;;;32.26;nan;99810.81;5060724;28;19977;-87
2022/05/19 09:50:23;;;;;;;;;;;;;;;32.23;nan;99811.28;5060315;28;19945;-88
2022/05/19 09:52:49;;;;;;;;;;;;;;;32.44;nan;99811.78;5056762;28;19968;-86
2022/05/19 09:55:19;;;;;;;;;;;;;;;32.52;nan;99804.13;5036662;28;20371;-86
2022/05/19 09:57:47;;;;;;;;;;;;;;;32.68;nan;99805.28;5037685;28;20060;-86
2022/05/19 10:00:18;;;;;;;;;;;;;;;32.80;nan;99802.56;5036137;28;20053;-85
2022/05/19 10:02:46;;;;;;;;;;;;;;;32.90;nan;99797.34;5043430;28;19946;-88
2022/05/19 10:05:29;;;;;;;;;;;;;;;32.93;nan;99793.31;5043965;28;19932;-88
2022/05/19 10:07:57;;;;;;;;;;;;;;;32.93;nan;99799.56;5037896;28;19967;-87
2022/05/19 10:10:25;;;;;;;;;;;;;;;32.78;nan;99807.41;5039327;28;19938;-84
2022/05/19 10:12:57;;;;;;;;;;;;;;;32.83;nan;99800.16;5055270;28;19934;-85
2022/05/19 10:15:26;;;;;;;;;;;;;;;32.88;nan;99791.31;5038630;28;19939;-88
2022/05/19 10:18:04;;;;;;;;;;;;;;;32.89;nan;99794.84;5033825;28;19980;-87
2022/05/19 10:20:34;;;;;;;;;;;;;;;32.83;nan;99791.19;5035679;28;19946;-86
2022/05/19 10:23:04;;;;;;;;;;;;;;;32.86;nan;99795.31;5043905;28;19968;-87
2022/05/19 10:25:35;;;;;;;;;;;;;;;32.75;nan;99797.81;5030062;28;20269;-87
2022/05/19 10:31:03;;;;;;;;;;;;;;;33.00;nan;99788.53;5046076;28;19922;-89
2022/05/19 10:33:38;;;;;;;;;;;;;;;33.14;nan;99795.41;5045720;28;19980;-88
2022/05/19 10:36:13;;;;;;;;;;;;;;;33.10;nan;99779.81;5044780;28;19934;-89
2022/05/19 10:38:42;;;;;;;;;;;;;;;32.97;nan;99786.31;5041643;28;19951;-87
2022/05/19 10:41:07;;;;;;;;;;;;;;;32.91;nan;99784.56;5036738;28;19931;-88
2022/05/19 10:43:47;;;;;;;;;;;;;;;32.86;nan;99779.00;5043527;28;19942;-88
2022/05/19 10:46:14;;;;;;;;;;;;;;;32.80;nan;99784.34;5032840;28;19997;-87
2022/05/19 10:48:57;;;;;;;;;;;;;;;32.84;nan;99780.06;5015254;28;20025;-87
2022/05/19 10:51:31;;;;;;;;;;;;;;;32.88;nan;99777.69;5027609;28;19938;-87
2022/05/19 10:54:06;;;;;;;;;;;;;;;32.89;nan;99784.78;5034574;28;19933;-88
2022/05/19 10:56:55;;;;;;;;;;;;;;;32.99;nan;99784.19;5037652;28;19969;-86
2022/05/19 10:59:21;;;;;;;;;;;;;;;32.98;nan;99780.63;4994509;28;20781;-86
2022/05/19 11:01:48;;;;;;;;;;;;;;;32.84;nan;99771.91;5039920;28;19954;-87
2022/05/19 11:04:32;;;;;;;;;;;;;;;32.86;nan;99770.84;5039695;28;20717;-86
2022/05/19 11:07:01;;;;;;;;;;;;;;;32.80;nan;99764.47;5047025;28;20026;-88
2022/05/19 11:09:33;;;;;;;;;;;;;;;32.77;nan;99764.94;5043604;28;19935;-89
2022/05/19 11:12:08;;;;;;;;;;;;;;;32.66;nan;99763.91;5044758;28;19937;-88
2022/05/19 11:14:39;;;;;;;;;;;;;;;32.55;nan;99753.88;5038745;28;19937;-88
2022/05/19 11:17:24;;;;;;;;;;;;;;;32.55;nan;99759.31;5020783;28;20015;-89
2022/05/19 11:19:54;;;;;;;;;;;;;;;32.71;nan;99753.13;5043796;28;19937;-88
2022/05/19 11:22:24;;;;;;;;;;;;;;;32.74;nan;99758.09;5009168;28;19962;-87
2022/05/19 11:27:40;;;;;;;;;;;;;;;32.44;nan;99754.69;5050016;28;20375;-87
2022/05/19 11:30:14;;;;;;;;;;;;;;;32.40;nan;99749.69;5040992;28;19941;-86
2022/05/19 11:32:40;;;;;;;;;;;;;;;32.42;nan;99752.19;5042524;28;19942;-87
2022/05/19 11:35:15;;;;;;;;;;;;;;;32.36;nan;99758.59;5041030;28;20043;-86
2022/05/19 11:37:46;;;;;;;;;;;;;;;32.40;nan;99744.25;5038549;28;19952;-87
2022/05/19 11:40:21;;;;;;;;;;;;;;;32.32;nan;99762.81;5040826;28;20256;-85
2022/05/19 11:43:00;;;;;;;;;;;;;;;32.37;nan;99765.66;5042076;28;19932;-88
2022/05/19 11:45:38;;;;;;;;;;;;;;;32.43;nan;99755.72;5042142;28;19938;-86
2022/05/19 11:56:37;;;;;;;;;;;;;;;32.50;nan;99753.75;5042669;28;19941;-87
2022/05/19 11:59:07;;;;;;;;;;;;;;;32.50;nan;99749.13;5044596;28;20032;-88
2022/05/19 12:01:41;;;;;;;;;;;;;;;32.40;nan;99760.56;5041577;28;20375;-87
2022/05/19 12:04:20;;;;;;;;;;;;;;;32.39;nan;99750.78;5050971;28;19952;-86
2022/05/19 12:06:53;;;;;;;;;;;;;;;32.34;nan;99756.09;5045109;28;19940;-88
2022/05/19 12:09:29;;;;;;;;;;;;;;;32.26;nan;99755.63;5041493;28;20418;-88
2022/05/19 12:12:01;;;;;;;;;;;;;;;32.21;nan;99752.78;5037279;28;20401;-89
2022/05/19 12:14:31;;;;;;;;;;;;;;;32.11;nan;99751.50;5048902;28;19982;-91
2022/05/19 12:16:59;;;;;;;;;;;;;;;32.14;nan;99750.19;5046513;28;20025;-89
2022/05/19 12:19:30;;;;;;;;;;;;;;;32.10;nan;99735.41;5046749;28;20024;-91
2022/05/19 12:21:55;;;;;;;;;;;;;;;32.07;nan;99746.75;5051136;28;19972;-89
2022/05/19 12:24:25;;;;;;;;;;;;;;;32.05;nan;99741.53;5052618;28;20299;-89
2022/05/19 12:27:05;;;;;;;;;;;;;;;32.07;nan;99735.88;5054784;28;19964;-90
2022/05/19 12:29:43;;;;;;;;;;;;;;;32.21;nan;99733.75;5057259;28;19926;-88
2022/05/19 12:32:14;;;;;;;;;;;;;;;32.30;nan;99726.91;5066303;28;19936;-90
2022/05/19 12:34:45;;;;;;;;;;;;;;;32.40;nan;99729.84;5069886;28;19981;-89
2022/05/19 12:37:13;;;;;;;;;;;;;;;32.37;nan;99720.25;5054040;28;19950;-90
2022/05/19 12:39:46;;;;;;;;;;;;;;;32.31;nan;99726.66;5021607;28;19938;-90
2022/05/19 12:42:25;;;;;;;;;;;;;;;32.45;nan;99723.69;5047047;28;19940;-91
2022/05/19 12:44:53;;;;;;;;;;;;;;;32.55;nan;99715.81;5047173;28;19937;-90
2022/05/19 12:47:33;;;;;;;;;;;;;;;32.70;nan;99726.16;5025555;28;19941;-90
2022/05/19 12:50:06;;;;;;;;;;;;;;;32.78;nan;99717.63;5048586;28;20028;-92
2022/05/19 12:52:52;;;;;;;;;;;;;;;32.71;nan;99728.66;5048104;28;20036;-90
2022/05/19 12:55:29;;;;;;;;;;;;;;;32.65;nan;99723.31;5046501;28;19937;-90
2022/05/19 12:57:56;;;;;;;;;;;;;;;32.59;nan;99725.13;5054877;28;20307;-89
2022/05/19 13:00:23;;;;;;;;;;;;;;;32.53;nan;99731.53;5059713;28;19933;-90
2022/05/19 13:03:09;;;;;;;;;;;;;;;32.49;nan;99733.06;5050263;28;19949;-92
2022/05/19 13:05:39;;;;;;;;;;;;;;;32.47;nan;99737.91;5051085;28;19935;-90
2022/05/19 13:08:12;;;;;;;;;;;;;;;32.43;nan;99734.78;5043399;28;20878;-89
2022/05/19 13:10:46;;;;;;;;;;;;;;;32.48;nan;99728.69;5048674;28;19942;-90
2022/05/19 13:13:31;;;;;;;;;;;;;;;32.59;nan;99736.00;5044501;28;20038;-89
2022/05/19 13:15:58;;;;;;;;;;;;;;;32.63;nan;99742.63;5043211;28;19945;-89
2022/05/19 13:18:26;;;;;;;;;;;;;;;32.66;nan;99738.59;5041417;28;19956;-87
2022/05/19 13:21:01;;;;;;;;;;;;;;;32.65;nan;99750.53;5026855;28;20031;-88
2022/05/19 13:23:30;;;;;;;;;;;;;;;32.69;nan;99746.28;5025907;28;19962;-88
2022/05/19 13:26:01;;;;;;;;;;;;;;;32.76;nan;99755.16;5043797;28;19938;-87
2022/05/19 13:31:18;;;;;;;;;;;;;;;32.64;nan;99760.59;5045446;28;19962;-88
2022/05/19 13:33:43;;;;;;;;;;;;;;;32.46;nan;99761.53;5045651;28;19945;-89
2022/05/19 13:36:19;;;;;;;;;;;;;;;32.33;nan;99757.16;5042844;28;19933;-87
2022/05/19 13:38:46;;;;;;;;;;;;;;;32.23;nan;99751.47;5041126;28;19956;-89
2022/05/19 13:41:12;;;;;;;;;;;;;;;32.14;nan;99758.34;5064620;28;20371;-89
2022/05/19 13:43:41;;;;;;;;;;;;;;;32.01;nan;99761.28;5064834;28;19956;-89
2022/05/19 13:46:20;;;;;;;;;;;;;;;31.96;nan;99751.94;5061722;28;19966;-87
2022/05/19 13:48:53;;;;;;;;;;;;;;;31.88;nan;99762.28;5061275;28;20167;-88
2022/05/19 13:51:30;;;;;;;;;;;;;;;31.81;nan;99751.53;5049329;28;19926;-89
2022/05/19 13:53:57;;;;;;;;;;;;;;;31.82;nan;99742.31;5066960;28;20395;-89
2022/05/19 13:56:24;;;;;;;;;;;;;;;31.84;nan;99737.50;5055682;28;19929;-89
2022/05/19 13:58:50;;;;;;;;;;;;;;;31.84;nan;99739.34;5062229;28;19953;-90
2022/05/19 14:01:24;;;;;;;;;;;;;;;31.82;nan;99741.50;5048727;28;20161;-89
2022/05/19 14:03:51;;;;;;;;;;;;;;;31.72;nan;99728.47;5065483;28;20028;-89
2022/05/19 14:06:18;;;;;;;;;;;;;;;31.68;nan;99725.41;5069087;28;19932;-88
2022/05/19 14:08:44;;;;;;;;;;;;;;;31.70;nan;99722.44;5062693;28;19944;-91
2022/05/19 14:11:09;;;;;;;;;;;;;;;31.79;nan;99710.19;5064383;28;19970;-91
2022/05/19 14:13:36;;;;;;;;;;;;;;;31.97;nan;99706.56;5048298;28;19946;-91
2022/05/19 14:16:05;;;;;;;;;;;;;;;32.12;nan;99698.78;5051024;28;19987;-92
2022/05/19 14:18:49;;;;;;;;;;;;;;;32.28;nan;99697.25;5055275;28;19954;-92
2022/05/19 14:21:18;;;;;;;;;;;;;;;32.42;nan;99694.28;5050162;28;19985;-91
2022/05/19 14:23:47;;;;;;;;;;;;;;;32.43;nan;99691.28;5049475;28;19965;-91
2022/05/19 14:26:16;;;;;;;;;;;;;;;32.46;nan;99687.28;5053770;28;20046;-93
2022/05/19 14:28:50;;;;;;;;;;;;;;;32.45;nan;99681.00;5052584;28;19934;-92
2022/05/19 14:31:28;;;;;;;;;;;;;;;32.46;nan;99684.56;5057841;28;19938;-92
2022/05/19 14:34:17;;;;;;;;;;;;;;;32.46;nan;99676.41;5061618;28;19938;-94
2022/05/19 14:36:55;;;;;;;;;;;;;;;32.51;nan;99679.25;5054569;28;19954;-91
2022/05/19 14:39:27;;;;;;;;;;;;;;;32.58;nan;99667.19;5042530;28;20461;-92
2022/05/19 14:44:41;;;;;;;;;;;;;;;32.71;nan;99671.53;5074958;28;19938;-90
2022/05/19 14:47:25;;;;;;;;;;;;;;;32.74;nan;99670.22;5070648;28;19936;-89
2022/05/19 14:50:08;;;;;;;;;;;;;;;32.77;nan;99669.75;5070415;28;19992;-90
2022/05/19 14:52:38;;;;;;;;;;;;;;;32.75;nan;99675.41;5026070;28;19960;-93
2022/05/19 14:55:13;;;;;;;;;;;;;;;32.73;nan;99677.56;5060778;28;19940;-90
2022/05/19 14:57:41;;;;;;;;;;;;;;;32.70;nan;99682.66;5061856;28;20006;-90
2022/05/19 15:00:10;;;;;;;;;;;;;;;32.46;nan;99681.84;5063739;28;20044;-90
2022/05/19 15:02:36;;;;;;;;;;;;;;;32.21;nan;99688.38;5057164;28;19952;-89
2022/05/19 15:05:05;;;;;;;;;;;;;;;32.11;nan;99683.56;5055225;28;19958;-89
2022/05/19 15:07:38;;;;;;;;;;;;;;;32.12;nan;99690.63;5070492;28;19936;-91
2022/05/19 15:10:04;;;;;;;;;;;;;;;32.21;nan;99695.69;5061241;28;19961;-92
2022/05/19 15:12:29;;;;;;;;;;;;;;;32.21;nan;99704.69;5070728;28;19954;-91
2022/05/19 15:14:55;;;;;;;;;;;;;;;32.14;nan;99699.38;5059654;28;19950;-90
2022/05/19 15:17:39;;;;;;;;;;;;;;;32.12;nan;99697.97;5062374;28;19953;-92
2022/05/19 15:20:06;;;;;;;;;;;;;;;32.16;nan;99693.69;5042882;28;20196;-90
2022/05/19 15:22:32;;;;;;;;;;;;;;;32.14;nan;99704.00;5069126;28;19984;-91
2022/05/19 15:24:58;;;;;;;;;;;;;;;32.12;nan;99698.78;5066831;28;20032;-90
2022/05/19 15:27:31;;;;;;;;;;;;;;;32.07;nan;99698.66;5056582;28;20087;-90
2022/05/19 15:29:57;;;;;;;;;;;;;;;32.02;nan;99693.09;5043146;28;20319;-92
2022/05/19 15:32:23;;;;;;;;;;;;;;;31.89;nan;99709.59;5058800;28;20360;-90
2022/05/19 15:34:49;;;;;;;;;;;;;;;31.82;nan;99698.84;5029376;28;20039;-90
2022/05/19 15:37:17;;;;;;;;;;;;;;;31.79;nan;99702.03;5062387;28;20002;-92
2022/05/19 15:39:43;;;;;;;;;;;;;;;31.72;nan;99693.16;5056835;28;19940;-89
2022/05/19 15:42:27;;;;;;;;;;;;;;;31.68;nan;99702.88;5059585;28;19982;-91
2022/05/19 15:45:10;;;;;;;;;;;;;;;31.71;nan;99705.94;5058065;28;19936;-93
2022/05/19 15:47:43;;;;;;;;;;;;;;;31.83;nan;99713.25;5055431;28;19936;-94
2022/05/19 15:50:20;;;;;;;;;;;;;;;31.70;nan;99717.88;5059423;28;19933;-91
2022/05/19 15:52:47;;;;;;;;;;;;;;;31.50;nan;99722.75;5052104;28;19936;-91
2022/05/19 15:55:14;;;;;;;;;;;;;;;31.33;nan;99728.00;5057316;28;19942;-90
2022/05/19 15:57:49;;;;;;;;;;;;;;;31.22;nan;99729.59;5055811;28;20037;-92
2022/05/19 16:00:15;;;;;;;;;;;;;;;31.20;nan;99726.28;5053310;28;19939;-94
2022/05/19 16:02:53;;;;;;;;;;;;;;;;;;;;;
2022/05/19 16:05:24;;;;;;;;;;;;;;;31.31;nan;99724.69;5057123;28;20652;-92
2022/05/19 16:07:50;;;;;;;;;;;;;;;31.37;nan;99729.22;5060581;28;20643;-90
2022/05/19 16:10:24;;;;;;;;;;;;;;;31.20;nan;99726.28;5058743;28;19941;-89
2022/05/19 16:12:54;;;;;;;;;;;;;;;30.92;nan;99731.44;5038989;28;20045;-91
2022/05/19 16:15:24;;;;;;;;;;;;;;;30.72;nan;99732.50;5056977;28;20268;-90
2022/05/19 16:17:55;;;;;;;;;;;;;;;30.53;nan;99738.97;5055135;28;20423;-91
2022/05/19 16:20:38;;;;;;;;;;;;;;;;;;;;;
2022/05/19 16:23:12;;;;;;;;;;;;;;;30.42;nan;99746.78;5053935;28;19951;-91
2022/05/19 16:25:41;;;;;;;;;;;;;;;30.41;nan;99753.28;5057193;28;20404;-91
2022/05/19 16:28:17;;;;;;;;;;;;;;;30.38;nan;99744.72;5054508;28;19954;-90
2022/05/19 16:30:45;;;;;;;;;;;;;;;30.32;nan;99754.59;5058341;28;19933;-90
2022/05/19 16:33:24;;;;;;;;;;;;;;;30.29;nan;99748.78;5058740;28;20531;-91
2022/05/19 16:36:08;;;;;;;;;;;;;;;30.25;nan;99748.44;5057582;28;19966;-89
2022/05/19 16:38:36;;;;;;;;;;;;;;;30.19;nan;99751.97;5051090;28;20000;-90
2022/05/19 16:41:01;;;;;;;;;;;;;;;30.11;nan;99753.09;5064532;28;20003;-91
2022/05/19 16:43:35;;;;;;;;;;;;;;;30.05;nan;99753.97;5064424;28;19977;-91
2022/05/19 16:46:01;;;;;;;;;;;;;;;29.99;nan;99754.88;5062538;28;19939;-91
2022/05/19 16:48:27;;;;;;;;;;;;;;;29.93;nan;99753.03;5061299;28;19949;-90
2022/05/19 16:50:53;;;;;;;;;;;;;;;29.86;nan;99761.19;5060342;28;19937;-91
2022/05/19 16:53:20;;;;;;;;;;;;;;;29.80;nan;99755.84;5057883;28;19939;-88
2022/05/19 16:58:47;;;;;;;;;;;;;;;29.70;nan;99746.31;5065749;28;19947;-91
2022/05/19 17:01:14;;;;;;;;;;;;;;;29.69;nan;99751.97;5071403;28;20202;-88
2022/05/19 17:03:39;;;;;;;;;;;;;;;29.69;nan;99750.09;5070763;28;19946;-90
2022/05/19 17:06:05;;;;;;;;;;;;;;;29.67;nan;99752.19;5047631;28;20166;-90
2022/05/19 17:08:32;;;;;;;;;;;;;;;29.63;nan;99753.66;5047550;28;20433;-90
2022/05/19 17:11:07;;;;;;;;;;;;;;;29.66;nan;99749.72;5048651;28;19973;-89
2022/05/19 17:13:35;;;;;;;;;;;;;;;29.70;nan;99751.72;5046355;28;19945;-90
2022/05/19 17:16:01;;;;;;;;;;;;;;;29.75;nan;99754.63;5049359;28;20522;-91
2022/05/19 17:18:29;;;;;;;;;;;;;;;29.73;nan;99753.19;5049356;28;19946;-90
2022/05/19 17:20:55;;;;;;;;;;;;;;;29.66;nan;99763.25;5048754;28;19938;-90
2022/05/19 17:23:23;;;;;;;;;;;;;;;29.61;nan;99760.31;5050158;28;20016;-90
2022/05/19 17:25:58;;;;;;;;;;;;;;;29.58;nan;99763.47;5050133;28;20360;-91
2022/05/19 17:28:24;;;;;;;;;;;;;;;29.52;nan;99760.59;5048327;28;19934;-90
2022/05/19 17:30:49;;;;;;;;;;;;;;;29.49;nan;99765.63;5029626;28;19939;-92
2022/05/19 17:33:17;;;;;;;;;;;;;;;29.39;nan;99760.66;5050048;28;19931;-91
2022/05/19 17:35:47;;;;;;;;;;;;;;;29.31;nan;99763.63;5050842;28;19931;-90
2022/05/19 17:38:13;;;;;;;;;;;;;;;29.28;nan;99758.66;5048453;28;19946;-88
2022/05/19 17:40:46;;;;;;;;;;;;;;;29.26;nan;99761.56;5054853;28;20490;-90
2022/05/19 17:43:19;;;;;;;;;;;;;;;29.20;nan;99759.72;5049985;28;19931;-89
2022/05/19 17:45:46;;;;;;;;;;;;;;;29.17;nan;99764.75;5054201;28;20352;-88
2022/05/19 17:48:22;;;;;;;;;;;;;;;29.15;nan;99764.13;5046599;28;19930;-90
2022/05/19 17:50:49;;;;;;;;;;;;;;;29.13;nan;99772.44;5049709;28;20035;-89
2022/05/19 17:53:15;;;;;;;;;;;;;;;29.14;nan;99762.44;5047939;28;19984;-89
2022/05/19 17:55:43;;;;;;;;;;;;;;;29.16;nan;99766.59;5044969;28;20357;-89
2022/05/19 17:58:11;;;;;;;;;;;;;;;29.18;nan;99761.81;5046542;28;20463;-88
2022/05/19 18:00:37;;;;;;;;;;;;;;;29.18;nan;99771.78;5050400;28;20351;-88
2022/05/19 18:03:02;;;;;;;;;;;;;;;29.13;nan;99766.19;5049300;28;20038;-88
2022/05/19 18:05:28;;;;;;;;;;;;;;;29.07;nan;99766.00;5050244;28;20049;-88
2022/05/19 18:08:04;;;;;;;;;;;;;;;;;;;;;
2022/05/19 18:10:41;;;;;;;;;;;;;;;29.00;nan;99767.03;5048928;28;20032;-89
2022/05/19 18:13:06;;;;;;;;;;;;;;;28.97;nan;99762.88;5055333;28;20336;-90
2022/05/19 18:18:21;;;;;;;;;;;;;;;28.87;nan;99771.47;5052667;28;20386;-87
2022/05/19 18:20:57;;;;;;;;;;;;;;;28.84;nan;99776.44;5048568;28;20225;-89
2022/05/19 18:23:25;;;;;;;;;;;;;;;28.80;nan;99778.75;5033602;28;20222;-89
2022/05/19 18:25:52;;;;;;;;;;;;;;;28.75;nan;99773.16;5049639;28;19939;-90
2022/05/19 18:28:18;;;;;;;;;;;;;;;28.66;nan;99777.97;5045663;28;20062;-89
2022/05/19 18:30:47;;;;;;;;;;;;;;;28.56;nan;99772.16;5050951;28;20141;-89
2022/05/19 18:33:13;;;;;;;;;;;;;;;28.48;nan;99769.69;5048043;28;19979;-89
2022/05/19 18:35:41;;;;;;;;;;;;;;;28.38;nan;99770.09;5032506;28;19930;-89
2022/05/19 18:38:06;;;;;;;;;;;;;;;28.28;nan;99775.09;5044779;28;20545;-89
2022/05/19 18:46:20;;;;;;;;;;;;;;;27.94;nan;99782.34;5046986;28;19935;-90
2022/05/19 18:48:45;;;;;;;;;;;;;;;27.86;nan;99779.84;5047047;28;20095;-88
2022/05/19 18:51:11;;;;;;;;;;;;;;;27.79;nan;99784.41;5048642;28;19935;-84
2022/05/19 18:53:38;;;;;;;;;;;;;;;27.69;nan;99782.09;5047828;28;19939;-86
2022/05/19 18:56:04;;;;;;;;;;;;;;;27.60;nan;99786.03;5047719;28;20018;-86
2022/05/19 18:58:30;;;;;;;;;;;;;;;27.49;nan;99787.44;5045612;28;20040;-84
2022/05/19 19:00:56;;;;;;;;;;;;;;;27.40;nan;99787.81;5051006;28;19942;-85
2022/05/19 19:03:21;;;;;;;;;;;;;;;27.32;nan;99791.53;5052794;28;19955;-86
2022/05/19 19:05:47;;;;;;;;;;;;;;;27.23;nan;99796.28;5051192;28;20389;-85
2022/05/19 19:08:12;;;;;;;;;;;;;;;27.14;nan;99800.16;5050682;28;19935;-85
2022/05/19 19:10:38;;;;;;;;;;;;;;;27.03;nan;99801.56;5051556;28;19931;-86
2022/05/19 19:13:06;;;;;;;;;;;;;;;26.81;nan;99799.97;5070841;28;19968;-85
2022/05/19 19:15:32;;;;;;;;;;;;;;;26.61;nan;99806.06;5070123;28;19951;-86
2022/05/19 19:17:57;;;;;;;;;;;;;;;26.45;nan;99812.53;5055046;28;20001;-85
2022/05/19 19:20:23;;;;;;;;;;;;;;;26.33;nan;99797.13;5051476;28;20268;-86
2022/05/19 19:22:48;;;;;;;;;;;;;;;26.25;nan;99806.19;5054354;28;20041;-85
2022/05/19 19:25:13;;;;;;;;;;;;;;;26.18;nan;99806.13;5054257;28;19949;-86
2022/05/19 19:27:40;;;;;;;;;;;;;;;26.12;nan;99809.59;5058298;28;19942;-85
2022/05/19 19:30:07;;;;;;;;;;;;;;;26.04;nan;99815.94;5072826;28;20488;-85